createdAt,value
2022-11-24T00:01:23.456Z,3.10
2022-11-24T00:03:57.510Z,2.92
2022-11-24T00:06:26.810Z,2.60
2022-11-24T00:08:56.263Z,2.70
2022-11-24T00:11:27.648Z,2.97
2022-11-24T00:13:56.895Z,2.20
2022-11-24T00:16:27.397Z,3.35
2022-11-24T00:18:59.181Z,2.88
2022-11-24T00:21:29.500Z,3.15
2022-11-24T00:23:58.506Z,3.60
2022-11-24T00:26:29.351Z,3.33
2022-11-24T00:29:00.063Z,4.45
2022-11-24T00:31:31.136Z,2.65
2022-11-24T00:34:03.632Z,3.20
2022-11-24T00:36:34.904Z,2.80
2022-11-24T00:39:06.232Z,2.72
2022-11-24T00:41:35.873Z,1.70
2022-11-24T00:44:04.948Z,1.95
2022-11-24T00:46:33.833Z,2.03
2022-11-24T00:49:03.635Z,2.53
2022-11-24T00:51:32.742Z,2.15
2022-11-24T00:54:02.235Z,1.90
2022-11-24T00:56:31.441Z,3.53
2022-11-24T00:59:00.372Z,2.80
2022-11-24T01:01:31.334Z,1.85
2022-11-24T01:04:02.368Z,2.30
2022-11-24T01:06:35.615Z,3.47
2022-11-24T01:09:04.882Z,2.40
2022-11-24T01:11:55.115Z,2.40
2022-11-24T01:14:25.816Z,2.72
2022-11-24T01:16:54.603Z,2.60
2022-11-24T01:19:23.223Z,2.45
2022-11-24T01:21:52.859Z,1.98
2022-11-24T01:24:21.567Z,2.08
2022-11-24T01:26:50.063Z,1.67
2022-11-24T01:29:18.602Z,2.50
2022-11-24T01:31:46.904Z,2.22
2022-11-24T01:34:15.505Z,2.83
2022-11-24T01:36:44.016Z,2.35
2022-11-24T01:39:14.296Z,3.22
2022-11-24T01:41:42.978Z,3.95
2022-11-24T01:44:26.352Z,1.70
2022-11-24T01:46:59.760Z,2.50
2022-11-24T01:49:39.116Z,2.85
2022-11-24T01:52:11.925Z,3.17
2022-11-24T01:54:45.572Z,2.58
2022-11-24T01:57:20.809Z,2.40
2022-11-24T01:59:52.762Z,2.80
2022-11-24T02:02:27.248Z,3.15
2022-11-24T02:04:56.386Z,2.90
2022-11-24T02:07:25.076Z,2.65
2022-11-24T02:09:58.837Z,2.20
2022-11-24T02:12:28.682Z,1.95
2022-11-24T02:14:57.799Z,2.63
2022-11-24T02:17:26.141Z,2.13
2022-11-24T02:19:58.883Z,2.53
2022-11-24T02:22:38.133Z,2.22
2022-11-24T02:25:18.082Z,2.30
2022-11-24T02:27:53.513Z,3.22
2022-11-24T02:30:22.841Z,2.65
2022-11-24T02:32:52.550Z,2.55
2022-11-24T02:35:21.295Z,1.77
2022-11-24T02:37:49.850Z,3.58
2022-11-24T02:40:24.950Z,2.40
2022-11-24T02:42:58.964Z,2.58
2022-11-24T02:45:28.844Z,4.28
2022-11-24T02:47:57.556Z,2.72
2022-11-24T02:50:26.234Z,2.08
2022-11-24T02:52:54.809Z,2.75
2022-11-24T02:55:23.598Z,2.65
2022-11-24T02:57:51.999Z,2.15
2022-11-24T03:00:22.270Z,2.70
2022-11-24T03:02:51.149Z,2.38
2022-11-24T03:05:20.160Z,3.10
2022-11-24T03:07:49.155Z,2.10
2022-11-24T03:10:18.355Z,1.83
2022-11-24T03:12:47.038Z,2.45
2022-11-24T03:15:15.720Z,2.65
2022-11-24T03:17:45.371Z,2.17
2022-11-24T03:20:14.067Z,3.88
2022-11-24T03:22:42.621Z,2.67
2022-11-24T03:25:11.400Z,2.97
2022-11-24T03:27:39.982Z,2.28
2022-11-24T03:30:09.779Z,3.67
2022-11-24T03:32:38.389Z,2.15
2022-11-24T03:35:09.025Z,2.60
2022-11-24T03:37:37.591Z,2.25
2022-11-24T03:40:07.419Z,2.17
2022-11-24T03:42:36.021Z,2.50
2022-11-24T03:45:30.006Z,3.47
2022-11-24T03:47:53.347Z,3.35
2022-11-24T03:50:22.974Z,1.67
2022-11-24T03:52:51.488Z,1.40
2022-11-24T03:55:20.126Z,2.50
2022-11-24T03:57:48.846Z,1.83
2022-11-24T04:00:18.693Z,1.77
2022-11-24T04:02:48.157Z,2.28
2022-11-24T04:05:17.123Z,2.35
2022-11-24T04:07:46.770Z,2.50
2022-11-24T04:10:15.407Z,2.42
2022-11-24T04:12:45.816Z,3.28
2022-11-24T04:15:17.479Z,3.08
2022-11-24T04:17:46.921Z,2.65
2022-11-24T04:20:16.516Z,1.85
2022-11-24T04:22:46.422Z,2.13
2022-11-24T04:25:17.331Z,2.70
2022-11-24T04:27:45.854Z,2.60
2022-11-24T04:30:14.388Z,1.60
2022-11-24T04:32:42.733Z,1.77
2022-11-24T04:35:11.458Z,3.15
2022-11-24T04:37:40.136Z,2.97
2022-11-24T04:40:12.285Z,2.05
2022-11-24T04:42:40.861Z,2.58
2022-11-24T04:45:10.509Z,2.38
2022-11-24T04:47:40.124Z,2.97
2022-11-24T04:50:10.563Z,2.05
2022-11-24T04:52:39.278Z,1.75
2022-11-24T04:55:10.657Z,1.75
2022-11-24T04:57:39.581Z,3.15
2022-11-24T05:00:11.340Z,2.58
2022-11-24T05:02:39.988Z,1.88
2022-11-24T05:05:09.724Z,3.17
2022-11-24T05:07:38.429Z,1.70
2022-11-24T05:10:27.326Z,2.78
2022-11-24T05:12:57.114Z,2.70
2022-11-24T05:15:25.844Z,2.42
2022-11-24T05:17:54.498Z,1.88
2022-11-24T05:20:23.251Z,2.47
2022-11-24T05:22:51.938Z,2.38
2022-11-24T05:25:21.588Z,2.30
2022-11-24T05:27:50.121Z,3.58
2022-11-24T05:30:18.384Z,2.38
2022-11-24T05:32:46.564Z,2.13
2022-11-24T05:35:15.439Z,3.00
2022-11-24T05:37:44.033Z,2.70
2022-11-24T05:40:12.803Z,3.30
2022-11-24T05:42:47.133Z,2.20
2022-11-24T05:45:18.626Z,3.80
2022-11-24T05:47:47.165Z,3.05
2022-11-24T05:50:17.996Z,2.63
2022-11-24T05:52:46.742Z,3.60
2022-11-24T05:55:16.090Z,3.10
2022-11-24T05:57:45.750Z,3.42
2022-11-24T06:00:17.899Z,3.75
2022-11-24T06:02:46.276Z,3.45
2022-11-24T06:05:14.919Z,2.95
2022-11-24T06:07:43.592Z,2.95
2022-11-24T06:10:12.353Z,3.03
2022-11-24T06:12:40.959Z,3.35
2022-11-24T06:15:12.246Z,3.38
2022-11-24T06:17:41.399Z,3.60
2022-11-24T06:20:11.507Z,4.18
2022-11-24T06:22:39.789Z,2.22
2022-11-24T06:25:09.376Z,3.75
2022-11-24T06:27:37.951Z,2.50
2022-11-24T06:30:07.584Z,3.25
2022-11-24T06:32:37.218Z,5.03
2022-11-24T06:35:06.491Z,3.35
2022-11-24T06:37:37.610Z,1.77
2022-11-24T06:40:09.158Z,2.63
2022-11-24T06:42:38.251Z,3.20
2022-11-24T06:45:09.541Z,2.88
2022-11-24T06:47:39.436Z,3.70
2022-11-24T06:50:10.500Z,2.90
2022-11-24T06:52:39.106Z,2.75
2022-11-24T06:55:08.931Z,2.75
2022-11-24T06:57:37.478Z,2.80
2022-11-24T07:00:08.025Z,3.30
2022-11-24T07:02:38.794Z,2.70
2022-11-24T07:05:11.236Z,2.75
2022-11-24T07:07:39.773Z,3.47
2022-11-24T07:10:09.329Z,3.17
2022-11-24T07:12:37.631Z,3.13
2022-11-24T07:15:07.521Z,2.22
2022-11-24T07:17:37.710Z,2.63
2022-11-24T07:20:07.894Z,2.53
2022-11-24T07:22:37.471Z,3.35
2022-11-24T07:25:09.679Z,3.10
2022-11-24T07:27:38.330Z,2.75
2022-11-24T07:30:08.277Z,4.10
2022-11-24T07:32:36.856Z,2.03
2022-11-24T07:35:05.993Z,2.17
2022-11-24T07:37:34.530Z,2.47
2022-11-24T07:40:04.466Z,3.10
2022-11-24T07:42:32.703Z,2.53
2022-11-24T07:45:00.907Z,2.03
2022-11-24T07:47:29.651Z,3.15
2022-11-24T07:49:58.190Z,3.05
2022-11-24T07:52:26.751Z,1.42
2022-11-24T07:54:55.343Z,1.60
2022-11-24T07:57:24.933Z,2.17
2022-11-24T07:59:53.410Z,1.95
2022-11-24T08:02:22.262Z,1.73
2022-11-24T08:04:50.817Z,1.42
2022-11-24T08:07:19.418Z,2.85
2022-11-24T08:09:48.308Z,1.42
2022-11-24T08:12:17.437Z,2.03
2022-11-24T08:14:46.994Z,2.50
2022-11-24T08:17:15.605Z,2.47
2022-11-24T08:19:44.147Z,3.30
2022-11-24T08:22:12.572Z,2.47
2022-11-24T08:24:46.282Z,2.72
2022-11-24T08:27:15.654Z,2.13
2022-11-24T08:29:44.013Z,2.33
2022-11-24T08:32:20.435Z,3.15
2022-11-24T08:34:52.097Z,1.50
2022-11-24T08:37:21.108Z,2.38
2022-11-24T08:39:49.599Z,2.35
2022-11-24T08:42:18.179Z,3.03
2022-11-24T08:44:46.488Z,2.17
2022-11-24T08:47:16.111Z,2.15
2022-11-24T08:49:44.305Z,2.65
2022-11-24T08:52:12.815Z,2.28
2022-11-24T08:54:44.255Z,1.98
2022-11-24T08:57:20.195Z,2.47
2022-11-24T08:59:50.199Z,2.67
2022-11-24T09:02:19.855Z,2.13
2022-11-24T09:04:48.417Z,2.22
2022-11-24T09:07:16.715Z,1.90
2022-11-24T09:09:45.039Z,2.30
2022-11-24T09:12:14.725Z,1.92
2022-11-24T09:14:43.510Z,2.03
2022-11-24T09:17:11.832Z,2.15
2022-11-24T09:19:41.439Z,1.52
2022-11-24T09:22:09.984Z,1.98
2022-11-24T09:24:38.184Z,2.33
2022-11-24T09:27:06.374Z,1.77
2022-11-24T09:29:34.741Z,1.98
2022-11-24T09:32:06.684Z,1.70
2022-11-24T09:34:35.734Z,1.90
2022-11-24T09:37:05.366Z,2.15
2022-11-24T09:39:34.208Z,1.52
2022-11-24T09:42:15.784Z,2.50
2022-11-24T09:45:13.810Z,2.40
2022-11-24T09:47:57.079Z,2.05
2022-11-24T09:50:28.734Z,2.03
2022-11-24T09:53:04.591Z,1.77
2022-11-24T09:55:41.647Z,1.27
2022-11-24T09:58:36.655Z,2.22
2022-11-24T10:01:13.240Z,2.40
2022-11-24T10:03:44.579Z,1.63
2022-11-24T10:06:24.668Z,1.40
2022-11-24T10:09:13.098Z,2.05
2022-11-24T10:11:52.888Z,2.50
2022-11-24T10:14:55.119Z,1.20
2022-11-24T10:17:43.407Z,2.08
2022-11-24T10:20:20.194Z,1.90
2022-11-24T10:23:02.988Z,1.48
2022-11-24T10:25:47.482Z,2.30
2022-11-24T10:28:17.508Z,1.70
2022-11-24T10:30:46.121Z,1.55
2022-11-24T10:33:23.182Z,2.22
2022-11-24T10:35:59.687Z,2.28
2022-11-24T10:38:43.220Z,2.25
2022-11-24T10:41:19.395Z,2.17
2022-11-24T10:43:48.006Z,1.48
2022-11-24T10:46:23.320Z,2.20
2022-11-24T10:48:57.267Z,1.67
2022-11-24T10:52:01.335Z,1.52
2022-11-24T10:54:30.084Z,1.80
2022-11-24T10:56:59.641Z,2.13
2022-11-24T10:59:38.481Z,1.80
2022-11-24T11:02:34.815Z,1.90
2022-11-24T11:05:42.167Z,2.75
2022-11-24T11:08:24.719Z,1.50
2022-11-24T11:11:23.725Z,2.35
2022-11-24T11:14:03.824Z,2.78
2022-11-24T11:16:38.222Z,2.05
2022-11-24T11:19:48.424Z,2.58
2022-11-24T11:22:25.257Z,2.47
2022-11-24T11:25:08.794Z,1.15
2022-11-24T11:27:37.935Z,1.60
2022-11-24T11:36:14.604Z,1.73
2022-11-24T11:38:44.703Z,1.42
2022-11-24T11:41:20.811Z,1.50
2022-11-24T11:43:57.618Z,2.25
2022-11-24T11:46:31.768Z,2.10
2022-11-24T11:49:00.607Z,2.50
2022-11-24T11:51:53.730Z,1.88
2022-11-24T11:54:35.315Z,1.50
2022-11-24T11:57:11.620Z,2.05
2022-11-24T12:00:15.345Z,2.22
2022-11-24T12:03:20.536Z,1.90
2022-11-24T12:06:00.253Z,2.05
2022-11-24T12:09:11.681Z,1.33
2022-11-24T12:11:38.511Z,2.10
2022-11-24T12:14:24.940Z,1.67
2022-11-24T12:17:02.636Z,1.52
2022-11-24T12:19:59.379Z,1.92
2022-11-24T12:22:43.744Z,2.30
2022-11-24T12:25:27.890Z,1.67
2022-11-24T12:28:17.564Z,2.10
2022-11-24T12:30:59.957Z,2.08
2022-11-24T12:34:01.402Z,1.92
2022-11-24T12:36:53.240Z,1.98
2022-11-24T12:39:30.479Z,1.55
2022-11-24T12:42:12.516Z,2.05
2022-11-24T12:45:24.174Z,2.13
2022-11-24T12:48:23.911Z,1.08
2022-11-24T12:50:55.775Z,1.33
2022-11-24T12:53:29.091Z,2.33
2022-11-24T12:56:08.503Z,1.60
2022-11-24T12:58:45.612Z,2.67
2022-11-24T13:01:26.425Z,1.63
2022-11-24T13:04:11.187Z,1.58
2022-11-24T13:06:51.434Z,1.38
2022-11-24T13:09:21.551Z,2.08
2022-11-24T13:11:51.198Z,1.70
2022-11-24T13:14:22.974Z,2.08
2022-11-24T13:19:43.497Z,2.10
2022-11-24T13:22:19.209Z,1.58
2022-11-24T13:25:17.752Z,1.75
2022-11-24T13:27:50.673Z,1.42
2022-11-24T13:31:08.340Z,1.52
2022-11-24T13:33:40.604Z,1.67
2022-11-24T13:36:51.539Z,1.58
2022-11-24T13:39:22.523Z,1.52
2022-11-24T13:42:44.028Z,1.95
2022-11-24T13:45:02.125Z,1.70
2022-11-24T13:47:41.088Z,1.00
2022-11-24T13:50:22.240Z,2.08
2022-11-24T13:53:00.047Z,1.88
2022-11-24T13:55:36.360Z,1.67
2022-11-24T13:58:28.688Z,1.60
2022-11-24T14:01:15.565Z,1.70
2022-11-24T14:04:28.727Z,1.35
2022-11-24T14:06:49.292Z,1.52
2022-11-24T14:09:28.262Z,1.33
2022-11-24T14:12:12.629Z,1.33
2022-11-24T14:14:42.484Z,1.87
2022-11-24T14:17:20.757Z,1.60
2022-11-24T14:19:51.073Z,1.70
2022-11-24T14:22:22.802Z,1.55
2022-11-24T14:24:57.527Z,1.42
2022-11-24T14:27:31.376Z,1.73
2022-11-24T14:30:03.704Z,1.97
2022-11-24T14:32:32.472Z,1.33
2022-11-24T14:35:01.304Z,1.17
2022-11-24T14:37:29.914Z,1.25
2022-11-24T14:39:58.452Z,1.52
2022-11-24T14:42:28.317Z,1.27
2022-11-24T14:44:59.838Z,1.70
2022-11-24T14:47:33.132Z,1.55
2022-11-24T14:50:13.680Z,1.65
2022-11-24T14:52:50.789Z,1.67
2022-11-24T14:55:29.397Z,1.67
2022-11-24T14:57:58.636Z,2.05
2022-11-24T15:00:31.041Z,2.00
2022-11-24T15:03:18.259Z,1.77
2022-11-24T15:05:56.138Z,1.80
2022-11-24T15:08:26.195Z,2.35
2022-11-24T15:11:00.092Z,1.35
2022-11-24T15:13:29.913Z,1.83
2022-11-24T15:16:03.592Z,1.65
2022-11-24T15:18:42.375Z,2.23
2022-11-24T15:21:18.662Z,2.08
2022-11-24T15:24:15.562Z,2.10
2022-11-24T15:26:44.793Z,2.03
2022-11-24T15:29:14.158Z,1.58
2022-11-24T15:31:47.878Z,2.00
2022-11-24T15:34:22.225Z,1.95
2022-11-24T15:36:50.848Z,1.42
2022-11-24T15:39:19.357Z,2.30
2022-11-24T15:41:47.957Z,1.70
2022-11-24T15:44:16.419Z,1.85
2022-11-24T15:46:45.033Z,1.55
2022-11-24T15:49:13.639Z,2.17
2022-11-24T15:51:47.099Z,1.63
2022-11-24T15:54:18.703Z,2.00
2022-11-24T15:56:47.490Z,1.83
2022-11-24T15:59:20.775Z,2.33
2022-11-24T16:01:50.821Z,2.17
2022-11-24T16:04:19.540Z,1.88
2022-11-24T16:06:49.132Z,1.85
2022-11-24T16:09:18.192Z,2.00
2022-11-24T16:11:46.730Z,2.72
2022-11-24T16:14:15.523Z,1.70
2022-11-24T16:16:44.029Z,2.67
2022-11-24T16:19:12.845Z,1.23
2022-11-24T16:21:41.327Z,1.77
2022-11-24T16:24:11.171Z,2.10
2022-11-24T16:26:39.678Z,1.30
2022-11-24T16:29:08.256Z,1.88
2022-11-24T16:31:37.037Z,2.17
2022-11-24T16:34:05.313Z,3.40
2022-11-24T16:36:33.814Z,3.80
2022-11-24T16:39:02.416Z,4.30
2022-11-24T16:41:31.988Z,3.50
2022-11-24T16:44:00.470Z,5.15
2022-11-24T16:46:29.048Z,4.80
2022-11-24T16:49:01.309Z,4.28
2022-11-24T16:51:34.606Z,4.30
2022-11-24T16:54:06.064Z,3.88
2022-11-24T16:56:35.782Z,4.22
2022-11-24T16:59:04.477Z,6.03
2022-11-24T17:01:33.772Z,6.35
2022-11-24T17:04:02.372Z,4.10
2022-11-24T17:06:32.744Z,3.33
2022-11-24T17:09:01.877Z,4.22
2022-11-24T17:11:30.723Z,4.55
2022-11-24T17:14:00.286Z,3.45
2022-11-24T17:16:29.425Z,3.40
2022-11-24T17:18:58.671Z,2.75
2022-11-24T17:21:28.478Z,3.00
2022-11-24T17:23:57.963Z,3.83
2022-11-24T17:26:26.864Z,4.85
2022-11-24T17:28:55.879Z,4.45
2022-11-24T17:31:28.255Z,4.18
2022-11-24T17:33:58.653Z,3.47
2022-11-24T17:36:28.137Z,2.88
2022-11-24T17:38:56.430Z,3.25
2022-11-24T17:41:24.946Z,4.97
2022-11-24T17:43:55.714Z,3.47
2022-11-24T17:46:26.188Z,3.55
2022-11-24T17:48:55.487Z,3.60
2022-11-24T17:51:26.508Z,3.97
2022-11-24T17:53:57.240Z,3.67
2022-11-24T17:56:27.415Z,3.78
2022-11-24T17:58:57.605Z,2.72
2022-11-24T18:01:28.508Z,3.08
2022-11-24T18:03:57.385Z,3.58
2022-11-24T18:06:25.797Z,4.05
2022-11-24T18:08:54.952Z,4.18
2022-11-24T18:11:30.586Z,3.90
2022-11-24T18:14:02.939Z,3.47
2022-11-24T18:16:35.408Z,3.65
2022-11-24T18:19:10.702Z,3.63
2022-11-24T18:21:41.012Z,4.68
2022-11-24T18:24:10.080Z,3.42
2022-11-24T18:26:38.661Z,3.55
2022-11-24T18:29:07.862Z,4.75
2022-11-24T18:31:37.928Z,4.70
2022-11-24T18:34:07.198Z,5.00
2022-11-24T18:36:36.094Z,6.03
2022-11-24T18:39:05.944Z,5.38
2022-11-24T18:41:34.504Z,5.50
2022-11-24T18:44:07.487Z,5.90
2022-11-24T18:46:37.905Z,6.95
2022-11-24T18:49:07.146Z,5.47
2022-11-24T18:51:35.957Z,6.53
2022-11-24T18:54:05.401Z,6.15
2022-11-24T18:56:34.262Z,7.10
2022-11-24T18:59:02.546Z,7.30
2022-11-24T19:01:32.136Z,7.43
2022-11-24T19:04:03.529Z,8.30
2022-11-24T19:06:34.326Z,6.35
2022-11-24T19:09:06.610Z,4.85
2022-11-24T19:11:37.711Z,4.93
2022-11-24T19:14:08.661Z,7.07
2022-11-24T19:16:37.909Z,5.07
2022-11-24T19:19:08.667Z,4.10
2022-11-24T19:21:38.953Z,4.38
2022-11-24T19:24:10.614Z,3.33
2022-11-24T19:26:39.728Z,4.63
2022-11-24T19:29:09.160Z,5.22
2022-11-24T19:31:39.369Z,3.63
2022-11-24T19:34:09.065Z,4.60
2022-11-24T19:36:37.794Z,5.32
2022-11-24T19:39:06.368Z,3.55
2022-11-24T19:41:35.392Z,5.32
2022-11-24T19:44:03.918Z,4.93
2022-11-24T19:46:33.591Z,3.10
2022-11-24T19:49:03.875Z,4.88
2022-11-24T19:51:35.711Z,6.40
2022-11-24T19:54:05.774Z,4.35
2022-11-24T19:56:36.952Z,4.90
2022-11-24T19:59:06.875Z,4.45
2022-11-24T20:01:38.493Z,4.47
2022-11-24T20:04:09.465Z,4.95
2022-11-24T20:06:41.751Z,7.25
2022-11-24T20:09:12.584Z,3.80
2022-11-24T20:11:41.612Z,4.90
2022-11-24T20:14:13.879Z,4.43
2022-11-24T20:16:43.323Z,5.60
2022-11-24T20:19:14.113Z,4.85
2022-11-24T20:21:46.358Z,4.93
2022-11-24T20:24:16.974Z,4.68
2022-11-24T20:26:48.084Z,4.97
2022-11-24T20:29:17.415Z,4.13
2022-11-24T20:31:48.657Z,4.07
2022-11-24T20:34:17.929Z,4.65
2022-11-24T20:36:48.712Z,4.32
2022-11-24T20:39:19.860Z,7.50
2022-11-24T20:41:48.574Z,8.93
2022-11-24T20:44:21.360Z,5.15
2022-11-24T20:46:50.438Z,4.30
2022-11-24T20:49:21.823Z,5.38
2022-11-24T20:51:54.477Z,4.82
2022-11-24T20:54:23.118Z,3.85
2022-11-24T20:56:51.471Z,4.40
2022-11-24T20:59:23.183Z,4.95
2022-11-24T21:01:55.092Z,4.38
2022-11-24T21:04:27.068Z,5.32
2022-11-24T21:06:56.711Z,4.60
2022-11-24T21:09:27.134Z,4.35
2022-11-24T21:11:55.668Z,5.70
2022-11-24T21:14:24.665Z,4.88
2022-11-24T21:16:53.325Z,4.70
2022-11-24T21:19:21.837Z,4.97
2022-11-24T21:21:50.375Z,6.82
2022-11-24T21:24:22.433Z,8.18
2022-11-24T21:26:52.552Z,4.20
2022-11-24T21:29:23.439Z,5.47
2022-11-24T21:31:52.293Z,3.38
2022-11-24T21:34:21.056Z,6.72
2022-11-24T21:36:50.216Z,16.80
2022-11-24T21:39:19.881Z,8.40
2022-11-24T21:41:48.841Z,5.40
2022-11-24T21:44:17.189Z,4.90
2022-11-24T21:46:51.085Z,5.82
2022-11-24T21:49:24.241Z,4.45
2022-11-24T21:51:55.573Z,5.53
2022-11-24T21:54:25.564Z,5.72
2022-11-24T21:56:55.377Z,5.18
2022-11-24T21:59:23.858Z,6.10
2022-11-24T22:01:52.146Z,6.70
2022-11-24T22:04:20.415Z,6.50
2022-11-24T22:06:48.981Z,5.50
2022-11-24T22:09:18.480Z,5.07
2022-11-24T22:11:49.541Z,6.70
2022-11-24T22:14:18.163Z,5.30
2022-11-24T22:16:47.090Z,6.43
2022-11-24T22:19:15.786Z,5.75
2022-11-24T22:21:44.294Z,5.30
2022-11-24T22:24:12.845Z,5.88
2022-11-24T22:26:41.070Z,5.18
2022-11-24T22:29:10.854Z,4.97
2022-11-24T22:31:39.438Z,5.65
2022-11-24T22:34:07.855Z,5.50
2022-11-24T22:36:37.601Z,5.75
2022-11-24T22:39:07.247Z,5.30
2022-11-24T22:41:36.784Z,5.63
2022-11-24T22:44:05.829Z,6.13
2022-11-24T22:46:35.404Z,5.60
2022-11-24T22:49:04.344Z,5.25
2022-11-24T22:51:35.065Z,5.95
2022-11-24T22:54:05.518Z,6.07
2022-11-24T22:56:34.560Z,5.95
2022-11-24T22:59:04.517Z,5.88
2022-11-24T23:01:35.081Z,5.18
2022-11-24T23:04:04.399Z,6.30
2022-11-24T23:06:34.300Z,6.85
2022-11-24T23:09:04.484Z,6.07
2022-11-24T23:11:38.205Z,6.00
2022-11-24T23:14:08.713Z,5.72
2022-11-24T23:16:38.317Z,5.32
2022-11-24T23:19:07.082Z,5.32
2022-11-24T23:21:38.224Z,5.45
2022-11-24T23:24:08.819Z,4.88
2022-11-24T23:26:39.820Z,5.15
2022-11-24T23:29:09.216Z,4.85
2022-11-24T23:31:40.068Z,4.90
2022-11-24T23:34:09.080Z,5.25
2022-11-24T23:36:37.574Z,4.55
2022-11-24T23:39:08.638Z,5.43
2022-11-24T23:41:37.057Z,6.88
2022-11-24T23:44:05.854Z,6.75
2022-11-24T23:46:34.875Z,12.30
2022-11-24T23:49:04.593Z,10.38
2022-11-24T23:51:34.763Z,13.85
2022-11-24T23:54:03.619Z,14.85
2022-11-24T23:56:33.667Z,11.80
2022-11-24T23:59:03.750Z,7.97
